Terminal Aerodrome Forecast
Issued by NWS

Home | Current Version | Previous Version | Graphics & Text | Print | Product List | Glossary On
Versions: 1 2 3 4 5 6 7 8 9 10 11 12 13 14
064
FTUS43 KICT 231738
TAFHUT
TAF
KHUT 231738Z 2318/2418 12011KT P6SM SCT150
     FM232100 16012KT P6SM FEW150
     FM240000 22008KT P6SM FEW100
     FM240200 33017G25KT P6SM OVC025=

USA.gov is the U.S. government's official web portal to all federal, state and local government web resources and services.